Aviation Digital Data Service (ADDS)

Output produced by METARs form (1023 UTC 25 June 2017)
found at http://aviationweather.gov/adds/metars/
 
KFAY 250605Z 2506/2606 VRB03KT P6SM BKN009 
     FM250800 VRB03KT 6SM BR OVC008 
     TEMPO 2509/2512 2SM BR SCT004 BKN050 
     FM251400 31006KT P6SM BKN040 
     FM252300 33004KT P6SM SKC